createdAt,value
2023-04-18T00:03:38.415Z,2.00
2023-04-18T00:07:41.447Z,1.93
2023-04-18T00:11:43.747Z,2.00
2023-04-18T00:15:46.441Z,1.83
2023-04-18T00:19:48.564Z,1.88
2023-04-18T00:23:50.910Z,2.17
2023-04-18T00:27:53.271Z,2.28
2023-04-18T00:31:55.485Z,2.05
2023-04-18T00:35:57.557Z,2.15
2023-04-18T00:39:59.661Z,2.10
2023-04-18T00:44:02.615Z,2.00
2023-04-18T00:48:04.956Z,2.03
2023-04-18T00:52:07.921Z,1.90
2023-04-18T00:56:10.631Z,1.48
2023-04-18T01:00:13.297Z,1.85
2023-04-18T01:04:20.303Z,1.95
2023-04-18T01:08:28.027Z,1.92
2023-04-18T01:12:34.936Z,1.80
2023-04-18T01:16:37.374Z,1.55
2023-04-18T01:20:41.742Z,1.70
2023-04-18T01:24:43.768Z,1.67
2023-04-18T01:28:45.985Z,1.67
2023-04-18T01:32:48.247Z,1.92
2023-04-18T01:36:50.518Z,1.98
2023-04-18T01:40:53.129Z,1.63
2023-04-18T01:44:55.181Z,1.85
2023-04-18T01:48:59.152Z,1.83
2023-04-18T01:53:01.310Z,1.80
2023-04-18T01:57:03.604Z,2.15
2023-04-18T02:01:05.731Z,1.90
2023-04-18T02:05:09.398Z,1.80
2023-04-18T02:09:17.364Z,1.95
2023-04-18T02:13:19.798Z,1.92
2023-04-18T02:17:23.574Z,1.75
2023-04-18T02:21:25.927Z,2.08
2023-04-18T02:25:29.038Z,1.88
2023-04-18T02:29:31.106Z,1.90
2023-04-18T02:33:33.354Z,1.70
2023-04-18T02:37:35.432Z,2.30
2023-04-18T02:41:39.389Z,1.58
2023-04-18T02:45:41.685Z,2.00
2023-04-18T02:49:43.947Z,2.38
2023-04-18T02:53:46.006Z,2.03
2023-04-18T02:57:48.888Z,2.15
2023-04-18T03:02:09.733Z,2.00
2023-04-18T03:06:16.609Z,2.17
2023-04-18T03:10:18.800Z,2.05
2023-04-18T03:14:21.731Z,1.92
2023-04-18T03:18:27.534Z,1.83
2023-04-18T03:22:32.626Z,1.80
2023-04-18T03:26:35.046Z,2.30
2023-04-18T03:30:37.143Z,2.03
2023-04-18T03:34:41.410Z,2.17
2023-04-18T03:38:45.342Z,2.53
2023-04-18T03:42:47.636Z,1.90
2023-04-18T03:46:51.277Z,2.25
2023-04-18T03:50:53.914Z,2.17
2023-04-18T03:54:56.137Z,2.17
2023-04-18T03:59:02.396Z,2.38
2023-04-18T04:03:07.077Z,2.15
2023-04-18T04:07:09.594Z,2.80
2023-04-18T04:11:12.027Z,2.47
2023-04-18T04:15:14.920Z,2.67
2023-04-18T04:19:23.286Z,2.65
2023-04-18T04:23:42.915Z,2.60
2023-04-18T04:27:53.783Z,2.90
2023-04-18T04:32:02.909Z,2.97
2023-04-18T04:36:16.689Z,2.85
2023-04-18T04:40:23.128Z,3.40
2023-04-18T04:44:31.650Z,3.17
2023-04-18T04:52:40.319Z,2.97
2023-04-18T04:56:42.779Z,2.97
2023-04-18T05:00:45.104Z,2.88
2023-04-18T05:04:47.269Z,3.13
2023-04-18T05:08:50.685Z,3.03
2023-04-18T05:12:52.665Z,2.80
2023-04-18T05:16:56.197Z,2.90
2023-04-18T05:20:58.323Z,2.77
2023-04-18T05:25:01.963Z,3.45
2023-04-18T05:29:04.100Z,2.90
2023-04-18T05:33:06.250Z,3.30
2023-04-18T05:37:08.570Z,3.70
2023-04-18T05:41:11.853Z,3.25
2023-04-18T05:45:13.941Z,3.17
2023-04-18T05:49:16.052Z,2.90
2023-04-18T05:53:18.219Z,3.30
2023-04-18T05:57:20.552Z,3.42
2023-04-18T06:01:23.142Z,3.25
2023-04-18T06:05:25.588Z,3.60
2023-04-18T06:09:27.657Z,3.38
2023-04-18T06:13:29.716Z,3.10
2023-04-18T06:17:32.087Z,2.92
2023-04-18T06:21:34.196Z,3.35
2023-04-18T06:25:36.288Z,2.95
2023-04-18T06:29:39.161Z,2.80
2023-04-18T06:33:41.297Z,3.03
2023-04-18T06:37:44.903Z,2.95
2023-04-18T06:41:48.585Z,3.20
2023-04-18T06:46:06.049Z,2.70
2023-04-18T06:50:08.839Z,2.88
2023-04-18T06:54:11.778Z,3.25
2023-04-18T06:58:16.282Z,3.30
2023-04-18T07:02:18.865Z,2.88
2023-04-18T07:06:21.645Z,3.15
2023-04-18T07:10:23.682Z,3.00
2023-04-18T07:14:26.165Z,3.15
2023-04-18T07:18:37.201Z,3.00
2023-04-18T07:22:41.186Z,3.03
2023-04-18T07:26:43.374Z,3.17
2023-04-18T07:30:46.108Z,3.08
2023-04-18T07:34:48.517Z,2.80
2023-04-18T07:38:51.823Z,2.50
2023-04-18T07:42:53.908Z,2.85
2023-04-18T07:46:56.041Z,3.05
2023-04-18T07:50:58.501Z,2.85
2023-04-18T07:55:00.829Z,3.03
2023-04-18T07:59:02.959Z,2.83
2023-04-18T08:03:07.592Z,3.13
2023-04-18T08:07:09.854Z,3.20
2023-04-18T08:11:12.040Z,2.80
2023-04-18T08:15:14.149Z,2.72
2023-04-18T08:19:16.474Z,3.60
2023-04-18T08:23:18.798Z,3.10
2023-04-18T08:27:20.828Z,3.03
2023-04-18T08:31:22.865Z,3.20
2023-04-18T08:35:24.909Z,3.20
2023-04-18T08:39:27.013Z,3.00
2023-04-18T08:43:31.288Z,2.75
2023-04-18T08:51:40.074Z,3.23
2023-04-18T08:55:42.156Z,3.40
2023-04-18T08:59:48.997Z,3.13
2023-04-18T09:03:52.778Z,3.28
2023-04-18T09:07:56.263Z,2.72
2023-04-18T09:12:09.581Z,2.40
2023-04-18T09:16:11.893Z,2.67
2023-04-18T09:20:15.777Z,2.83
2023-04-18T09:24:21.219Z,2.45
2023-04-18T09:28:29.040Z,2.80
2023-04-18T09:32:31.177Z,3.10
2023-04-18T09:36:35.415Z,2.45
2023-04-18T09:40:37.640Z,2.90
2023-04-18T09:45:08.495Z,3.08
2023-04-18T09:49:11.543Z,3.60
2023-04-18T09:53:20.654Z,3.38
2023-04-18T09:57:28.600Z,3.13
2023-04-18T10:01:31.023Z,2.30
2023-04-18T10:05:36.265Z,3.08
2023-04-18T10:09:42.710Z,3.00
2023-04-18T10:13:48.141Z,2.92
2023-04-18T10:22:02.489Z,2.65
2023-04-18T10:26:09.034Z,2.17
2023-04-18T10:30:11.737Z,2.58
2023-04-18T10:34:18.168Z,2.72
2023-04-18T10:38:23.691Z,2.00
2023-04-18T10:42:55.008Z,2.60
2023-04-18T10:46:56.974Z,2.38
2023-04-18T10:51:21.010Z,2.90
2023-04-18T10:55:30.940Z,2.72
2023-04-18T10:59:34.640Z,2.70
2023-04-18T11:03:37.368Z,2.42
2023-04-18T11:07:41.555Z,2.67
2023-04-18T11:11:44.351Z,2.22
2023-04-18T11:15:46.508Z,2.95
2023-04-18T11:19:48.758Z,2.63
2023-04-18T11:23:51.126Z,2.53
2023-04-18T11:27:53.227Z,3.08
2023-04-18T11:31:58.475Z,3.58
2023-04-18T11:36:01.089Z,2.30
2023-04-18T11:40:04.074Z,2.42
2023-04-18T11:44:06.471Z,2.22
2023-04-18T11:48:09.146Z,1.88
2023-04-18T11:52:13.036Z,2.05
2023-04-18T12:00:19.695Z,2.15
2023-04-18T12:04:22.101Z,2.67
2023-04-18T12:08:25.462Z,2.40
2023-04-18T12:12:27.634Z,2.10
2023-04-18T12:16:30.724Z,2.17
2023-04-18T12:20:36.523Z,2.30
2023-04-18T12:24:38.784Z,1.85
2023-04-18T12:28:45.788Z,2.03
2023-04-18T12:32:54.621Z,2.22
2023-04-18T12:36:56.895Z,2.40
2023-04-18T12:40:59.255Z,2.55
2023-04-18T12:45:03.440Z,2.13
2023-04-18T12:49:05.725Z,2.45
2023-04-18T12:53:07.956Z,2.53
2023-04-18T12:57:10.094Z,1.90
2023-04-18T13:01:14.193Z,1.73
2023-04-18T13:09:19.805Z,2.20
2023-04-18T13:13:21.984Z,2.10
2023-04-18T13:17:24.417Z,1.67
2023-04-18T13:21:26.753Z,1.75
2023-04-18T13:25:28.987Z,1.90
2023-04-18T13:29:31.104Z,1.58
2023-04-18T13:33:33.254Z,1.70
2023-04-18T13:37:35.816Z,1.80
2023-04-18T13:41:48.564Z,1.80
2023-04-18T13:45:54.269Z,1.90
2023-04-18T13:49:57.889Z,1.50
2023-04-18T13:54:03.075Z,1.80
2023-04-18T13:58:05.128Z,1.20
2023-04-18T14:02:09.463Z,1.45
2023-04-18T14:06:11.637Z,1.35
2023-04-18T14:10:14.103Z,1.35
2023-04-18T14:14:16.186Z,1.27
2023-04-18T14:18:21.746Z,1.15
2023-04-18T14:22:25.079Z,1.17
2023-04-18T14:26:27.210Z,1.27
2023-04-18T14:30:30.733Z,1.23
2023-04-18T14:34:34.384Z,1.02
2023-04-18T14:38:37.506Z,1.60
2023-04-18T14:42:39.659Z,1.30
2023-04-18T14:46:43.075Z,1.88
2023-04-18T14:50:47.776Z,1.20
2023-04-18T14:54:50.098Z,1.25
2023-04-18T14:58:52.994Z,1.52
2023-04-18T15:02:56.032Z,1.42
2023-04-18T15:06:58.311Z,1.30
2023-04-18T15:11:01.231Z,1.63
2023-04-18T15:15:03.602Z,1.45
2023-04-18T15:19:06.001Z,1.50
2023-04-18T15:23:09.817Z,1.75
2023-04-18T15:27:12.117Z,1.52
2023-04-18T15:31:15.930Z,1.40
2023-04-18T15:35:18.398Z,1.27
2023-04-18T15:39:23.461Z,1.13
2023-04-18T15:43:25.828Z,1.40
2023-04-18T15:47:27.930Z,1.20
2023-04-18T15:51:31.044Z,1.40
2023-04-18T15:55:34.154Z,1.10
2023-04-18T15:59:36.407Z,1.20
2023-04-18T16:03:38.727Z,1.20
2023-04-18T16:07:42.429Z,1.20
2023-04-18T16:11:44.664Z,1.90
2023-04-18T16:15:48.127Z,0.98
2023-04-18T16:19:50.179Z,1.10
2023-04-18T16:23:52.520Z,1.25
2023-04-18T16:27:54.807Z,0.98
2023-04-18T16:31:56.981Z,1.05
2023-04-18T16:36:02.518Z,1.10
2023-04-18T16:40:06.466Z,1.10
2023-04-18T16:44:09.330Z,1.00
2023-04-18T16:48:11.752Z,1.20
2023-04-18T16:52:14.494Z,1.30
2023-04-18T16:56:16.579Z,0.80
2023-04-18T17:00:19.042Z,0.85
2023-04-18T17:04:21.737Z,9.90
2023-04-18T17:08:25.909Z,2.58
2023-04-18T17:12:28.095Z,1.50
2023-04-18T17:16:30.621Z,1.20
2023-04-18T17:20:32.851Z,1.02
2023-04-18T17:24:35.699Z,1.00
2023-04-18T17:28:37.771Z,0.98
2023-04-18T17:32:45.598Z,0.85
2023-04-18T17:36:47.787Z,1.20
2023-04-18T17:40:58.617Z,0.90
2023-04-18T17:45:02.915Z,2.63
2023-04-18T17:49:05.128Z,0.95
2023-04-18T17:53:07.308Z,0.80
2023-04-18T17:57:09.271Z,0.90
2023-04-18T18:01:15.527Z,1.00
2023-04-18T18:05:17.625Z,0.90
2023-04-18T18:09:19.645Z,0.70
2023-04-18T18:13:21.854Z,0.90
2023-04-18T18:17:24.852Z,1.23
2023-04-18T18:21:27.219Z,0.90
2023-04-18T18:25:29.566Z,0.90
2023-04-18T18:29:31.658Z,0.90
2023-04-18T18:33:33.733Z,0.88
2023-04-18T18:37:35.863Z,0.90
2023-04-18T18:41:39.511Z,0.87
2023-04-18T18:45:41.510Z,0.90
2023-04-18T18:49:43.829Z,0.80
2023-04-18T18:53:46.857Z,0.85
2023-04-18T18:57:48.928Z,1.10
2023-04-18T19:01:51.060Z,1.10
2023-04-18T19:05:55.164Z,3.10
2023-04-18T19:10:00.515Z,1.55
2023-04-18T19:14:03.349Z,1.00
2023-04-18T19:18:06.116Z,1.08
2023-04-18T19:22:08.402Z,1.00
2023-04-18T19:26:10.884Z,1.20
2023-04-18T19:30:13.844Z,1.10
2023-04-18T19:34:19.017Z,5.20
2023-04-18T19:38:21.151Z,7.03
2023-04-18T19:42:23.439Z,1.85
2023-04-18T19:46:26.373Z,1.40
2023-04-18T19:50:28.575Z,1.60
2023-04-18T19:54:33.628Z,2.65
2023-04-18T19:58:46.244Z,2.88
2023-04-18T20:02:48.565Z,5.65
2023-04-18T20:06:50.810Z,6.57
2023-04-18T20:10:53.322Z,8.55
2023-04-18T20:14:58.941Z,11.98
2023-04-18T20:19:01.984Z,6.43
2023-04-18T20:23:04.808Z,8.00
2023-04-18T20:27:07.063Z,4.35
2023-04-18T20:31:11.477Z,3.28
2023-04-18T20:35:13.666Z,3.08
2023-04-18T20:39:16.413Z,3.40
2023-04-18T20:43:19.669Z,3.22
2023-04-18T20:47:21.831Z,1.75
2023-04-18T20:51:23.942Z,2.10
2023-04-18T20:55:26.314Z,2.00
2023-04-18T20:59:28.454Z,1.58
2023-04-18T21:03:31.049Z,1.95
2023-04-18T21:07:33.307Z,1.42
2023-04-18T21:11:35.356Z,1.40
2023-04-18T21:15:38.211Z,1.45
2023-04-18T21:19:40.269Z,1.98
2023-04-18T21:23:43.875Z,3.53
2023-04-18T21:27:45.958Z,2.73
2023-04-18T21:31:49.500Z,1.13
2023-04-18T21:35:51.746Z,1.27
2023-04-18T21:39:53.847Z,1.10
2023-04-18T21:43:56.065Z,1.48
2023-04-18T21:47:58.199Z,1.60
2023-04-18T21:52:00.702Z,1.42
2023-04-18T21:56:02.939Z,1.92
2023-04-18T22:00:08.407Z,2.00
2023-04-18T22:04:12.501Z,1.90
2023-04-18T22:08:14.975Z,1.38
2023-04-18T22:12:17.183Z,1.55
2023-04-18T22:16:19.423Z,7.35
2023-04-18T22:20:21.788Z,3.05
2023-04-18T22:24:25.942Z,1.80
2023-04-18T22:28:28.488Z,1.30
2023-04-18T22:32:30.718Z,1.58
2023-04-18T22:36:32.843Z,2.33
2023-04-18T22:40:34.891Z,2.22
2023-04-18T22:44:37.041Z,2.03
2023-04-18T22:48:39.150Z,2.03
2023-04-18T22:52:41.937Z,2.08
2023-04-18T22:56:43.986Z,1.30
2023-04-18T23:00:46.076Z,1.35
2023-04-18T23:04:52.570Z,1.63
2023-04-18T23:08:57.096Z,1.55
2023-04-18T23:12:59.322Z,1.67
2023-04-18T23:17:01.666Z,1.67
2023-04-18T23:21:03.820Z,1.40
2023-04-18T23:25:06.074Z,1.60
2023-04-18T23:29:08.100Z,1.48
2023-04-18T23:33:10.610Z,1.27
2023-04-18T23:37:12.880Z,1.42
2023-04-18T23:41:14.929Z,1.67
2023-04-18T23:45:17.206Z,1.63
2023-04-18T23:49:19.249Z,1.40
2023-04-18T23:53:22.315Z,1.75
2023-04-18T23:57:24.326Z,1.60
